Time,TemperatureF,DewpointF,PressureIn,WindDirection,WindDirectionDegrees,WindSpeedMPH,WindSpeedGustMPH,Humidity,HourlyPrecipIn,Conditions,Clouds,dailyrainin,SoftwareType,DateUTC
2013-03-30 00:00:00,64.2,52.6,30.05,East,90,13.6,13.6,66,0.00,CLR,,0.00,WeatherDisplay:10.37,2013-03-30 06:00:00,
2013-03-30 00:05:00,64.4,52.8,30.05,SE,135,15.9,15.9,66,0.00,CLR,,0.00,WeatherDisplay:10.37,2013-03-30 06:05:00,
2013-03-30 00:10:00,65.1,52.6,30.05,NNE,23,17.4,17.4,64,0.00,CLR,,0.00,WeatherDisplay:10.37,2013-03-30 06:10:00,
2013-03-30 00:15:00,65.5,53.0,30.04,East,90,21.2,21.2,64,0.00,CLR,,0.00,WeatherDisplay:10.37,2013-03-30 06:15:00,
2013-03-30 00:20:00,65.3,53.2,30.04,NE,45,11.4,11.4,65,0.00,CLR,,0.00,WeatherDisplay:10.37,2013-03-30 06:20:00,
2013-03-30 00:25:00,65.3,51.9,30.03,NE,45,15.9,15.9,62,0.00,CLR,,0.00,WeatherDisplay:10.37,2013-03-30 06:25:00,
2013-03-30 00:32:00,65.7,53.6,30.04,NE,45,25.0,25.0,65,0.00,CLR,,0.00,WeatherDisplay:10.37,2013-03-30 06:32:00,
2013-03-30 00:37:00,65.3,53.6,30.03,East,90,15.9,15.9,66,0.00,CLR,,0.00,WeatherDisplay:10.37,2013-03-30 06:37:00,
2013-03-30 00:42:00,64.8,53.9,30.03,NE,45,13.0,13.0,68,0.00,CLR,,0.00,WeatherDisplay:10.37,2013-03-30 06:42:00,
2013-03-30 00:47:00,64.2,54.6,30.03,NE,45,22.1,22.1,71,0.00,CLR,,0.00,WeatherDisplay:10.37,2013-03-30 06:47:00,
2013-03-30 00:52:00,64.0,54.4,30.03,NE,45,28.8,28.8,71,0.00,CLR,,0.00,WeatherDisplay:10.37,2013-03-30 06:52:00,
2013-03-30 00:57:00,64.2,54.6,30.03,North,0,12.1,12.1,71,0.00,CLR,,0.00,WeatherDisplay:10.37,2013-03-30 06:57:00,
2013-03-30 01:02:00,64.0,54.8,30.03,NE,45,15.2,15.2,72,0.00,CLR,,0.00,WeatherDisplay:10.37,2013-03-30 07:02:00,
2013-03-30 01:07:00,63.7,54.9,30.02,NE,45,17.4,17.4,73,0.00,CLR,,0.00,WeatherDisplay:10.37,2013-03-30 07:07:00,
2013-03-30 01:14:00,63.3,54.9,30.02,NE,45,25.0,25.0,74,0.00,CLR,,0.00,WeatherDisplay:10.37,2013-03-30 07:14:00,
2013-03-30 01:19:00,63.1,55.1,30.02,NE,45,12.1,12.1,75,0.00,CLR,,0.00,WeatherDisplay:10.37,2013-03-30 07:19:00,
2013-03-30 01:24:00,63.0,54.9,30.03,East,90,11.0,25.0,75,0.00,,,0.00,meteohub,2013-03-30 07:24:00,
2013-03-30 01:29:00,62.8,54.7,30.03,East,90,11.4,11.4,75,0.00,CLR,,0.00,WeatherDisplay:10.37,2013-03-30 07:29:00,
2013-03-30 01:34:00,62.8,55.5,30.02,East,90,10.7,10.7,77,0.00,CLR,,0.00,WeatherDisplay:10.37,2013-03-30 07:34:00,
2013-03-30 01:39:00,62.6,55.6,30.03,NE,45,17.4,17.4,78,0.00,CLR,,0.00,WeatherDisplay:10.37,2013-03-30 07:39:00,
2013-03-30 01:44:00,62.6,55.6,30.02,NE,45,15.2,15.2,78,0.00,CLR,,0.00,WeatherDisplay:10.37,2013-03-30 07:44:00,
2013-03-30 01:49:00,62.4,56.2,30.03,East,90,6.0,6.0,80,0.00,CLR,,0.00,WeatherDisplay:10.37,2013-03-30 07:49:00,
2013-03-30 01:55:00,62.4,55.4,30.04,NE,45,11.0,18.0,78,0.00,,,0.00,meteohub,2013-03-30 07:55:00,
2013-03-30 02:00:00,62.6,54.9,30.02,NE,45,7.6,7.6,76,0.00,CLR,,0.00,WeatherDisplay:10.37,2013-03-30 08:00:00,
2013-03-30 02:05:00,62.2,55.3,30.03,East,90,9.8,9.8,78,0.00,CLR,,0.00,WeatherDisplay:10.37,2013-03-30 08:05:00,
2013-03-30 02:10:00,62.2,55.3,30.03,NE,45,13.0,13.0,78,0.00,CLR,,0.00,WeatherDisplay:10.37,2013-03-30 08:10:00,
2013-03-30 02:17:00,62.4,55.8,30.03,NE,45,13.0,13.0,79,0.00,CLR,,0.00,WeatherDisplay:10.37,2013-03-30 08:17:00,
2013-03-30 02:22:00,62.6,55.6,30.02,NE,45,12.1,12.1,78,0.00,CLR,,0.00,WeatherDisplay:10.37,2013-03-30 08:22:00,
2013-03-30 02:27:00,63.0,54.9,30.02,SE,135,4.5,4.5,75,0.00,CLR,,0.00,WeatherDisplay:10.37,2013-03-30 08:27:00,
2013-03-30 02:33:00,62.6,54.6,30.03,South,180,4.5,4.5,75,0.00,CLR,,0.00,WeatherDisplay:10.37,2013-03-30 08:33:00,
2013-03-30 02:38:00,62.4,54.8,30.03,SE,135,3.8,3.8,76,0.00,CLR,,0.00,WeatherDisplay:10.37,2013-03-30 08:38:00,
2013-03-30 02:43:00,62.1,54.4,30.03,NE,45,6.0,6.0,76,0.00,CLR,,0.00,WeatherDisplay:10.37,2013-03-30 08:43:00,
2013-03-30 02:48:00,62.4,55.5,30.03,East,90,13.6,13.6,78,0.00,CLR,,0.00,WeatherDisplay:10.37,2013-03-30 08:48:00,
2013-03-30 02:53:00,62.6,55.6,30.03,NE,45,10.7,10.7,78,0.00,CLR,,0.00,WeatherDisplay:10.37,2013-03-30 08:53:00,
2013-03-30 02:58:00,62.4,56.2,30.03,NE,45,9.8,9.8,80,0.00,CLR,,0.00,WeatherDisplay:10.37,2013-03-30 08:58:00,
2013-03-30 03:03:00,62.4,56.5,30.04,NE,45,15.2,15.2,81,0.00,CLR,,0.00,WeatherDisplay:10.37,2013-03-30 09:03:00,
2013-03-30 03:08:00,62.4,56.5,30.03,East,90,12.1,12.1,81,0.00,CLR,,0.00,WeatherDisplay:10.37,2013-03-30 09:08:00,
2013-03-30 03:13:00,62.2,56.3,30.03,NE,45,9.8,9.8,81,0.00,CLR,,0.00,WeatherDisplay:10.37,2013-03-30 09:13:00,
2013-03-30 03:18:00,62.1,56.5,30.03,SSE,158,11.4,11.4,82,0.00,CLR,,0.00,WeatherDisplay:10.37,2013-03-30 09:18:00,
2013-03-30 03:23:00,62.1,56.5,30.03,East,90,14.5,14.5,82,0.00,CLR,,0.00,WeatherDisplay:10.37,2013-03-30 09:23:00,
2013-03-30 03:28:00,61.9,56.7,30.03,NE,45,13.6,13.6,83,0.00,CLR,,0.00,WeatherDisplay:10.37,2013-03-30 09:28:00,
2013-03-30 03:33:00,61.7,56.8,30.04,NE,45,16.8,16.8,84,0.00,CLR,,0.00,WeatherDisplay:10.37,2013-03-30 09:33:00,
2013-03-30 03:34:00,61.7,56.8,30.03,NE,45,16.8,16.8,84,0.00,CLR,,0.00,WeatherDisplay:10.37,2013-03-30 09:34:00,
2013-03-30 03:39:00,61.7,56.8,30.04,NNW,338,14.5,14.5,84,0.00,CLR,,0.00,WeatherDisplay:10.37,2013-03-30 09:39:00,
2013-03-30 03:44:00,61.9,57.3,30.03,North,0,13.0,13.0,85,0.00,CLR,,0.00,WeatherDisplay:10.37,2013-03-30 09:44:00,
2013-03-30 03:49:00,61.9,57.3,30.03,NE,45,10.7,10.7,85,0.00,CLR,,0.00,WeatherDisplay:10.37,2013-03-30 09:49:00,
2013-03-30 03:54:00,61.9,57.3,30.04,ENE,68,10.7,10.7,85,0.00,CLR,,0.00,WeatherDisplay:10.37,2013-03-30 09:54:00,
2013-03-30 03:59:00,61.7,57.1,30.04,East,90,9.8,9.8,85,0.00,CLR,,0.00,WeatherDisplay:10.37,2013-03-30 09:59:00,
2013-03-30 04:04:00,61.5,57.0,30.04,East,90,8.3,8.3,85,0.00,CLR,,0.00,WeatherDisplay:10.37,2013-03-30 10:04:00,
2013-03-30 04:09:00,61.7,57.1,30.05,NE,45,11.4,11.4,85,0.00,CLR,,0.00,WeatherDisplay:10.37,2013-03-30 10:09:00,
2013-03-30 04:14:00,61.7,57.1,30.05,NE,45,13.0,13.0,85,0.00,CLR,,0.00,WeatherDisplay:10.37,2013-03-30 10:14:00,
2013-03-30 04:19:00,61.7,57.5,30.04,NE,45,9.2,9.2,86,0.00,CLR,,0.00,WeatherDisplay:10.37,2013-03-30 10:19:00,
2013-03-30 04:24:00,61.7,57.5,30.04,East,90,14.5,14.5,86,0.00,CLR,,0.00,WeatherDisplay:10.37,2013-03-30 10:24:00,
2013-03-30 04:29:00,61.9,58.0,30.05,NE,45,11.4,11.4,87,0.00,CLR,,0.00,WeatherDisplay:10.37,2013-03-30 10:29:00,
2013-03-30 04:34:00,61.9,57.6,30.05,NE,45,15.2,15.2,86,0.00,CLR,,0.00,WeatherDisplay:10.37,2013-03-30 10:34:00,
2013-03-30 04:39:00,62.1,57.8,30.05,East,90,9.8,9.8,86,0.00,CLR,,0.00,WeatherDisplay:10.37,2013-03-30 10:39:00,
2013-03-30 04:44:00,62.2,57.7,30.06,East,90,11.0,17.0,85,0.00,,,0.00,meteohub,2013-03-30 10:44:00,
2013-03-30 04:49:00,62.2,57.7,30.05,East,90,6.0,6.0,85,0.00,CLR,,0.00,WeatherDisplay:10.37,2013-03-30 10:49:00,
2013-03-30 04:54:00,64.2,55.8,30.07,ENE,58,0.0,8.0,74,0.00,CLR,,0.00,WeatherDisplay:10.37,2013-03-30 10:54:00,
2013-03-30 04:59:00,62.4,58.2,30.05,NE,45,12.1,12.1,86,0.00,CLR,,0.00,WeatherDisplay:10.37,2013-03-30 10:59:00,
2013-03-30 05:04:00,62.6,57.7,30.06,NE,45,14.5,14.5,84,0.00,CLR,,0.00,WeatherDisplay:10.37,2013-03-30 11:04:00,
2013-03-30 05:09:00,64.2,55.8,30.07,ENE,58,0.0,21.0,74,0.00,CLR,,0.00,WeatherDisplay:10.37,2013-03-30 11:09:00,
2013-03-30 05:14:00,62.6,57.7,30.06,East,90,13.6,13.6,84,0.00,CLR,,0.00,WeatherDisplay:10.37,2013-03-30 11:14:00,
2013-03-30 05:19:00,64.2,55.8,30.07,ENE,58,0.0,18.0,74,0.00,CLR,,0.00,WeatherDisplay:10.37,2013-03-30 11:19:00,
2013-03-30 05:24:00,64.2,55.8,30.07,ENE,58,0.0,19.0,74,0.00,CLR,,0.00,WeatherDisplay:10.37,2013-03-30 11:24:00,
2013-03-30 05:29:00,62.6,57.7,30.06,NE,45,19.0,19.0,84,0.00,CLR,,0.00,WeatherDisplay:10.37,2013-03-30 11:29:00,
2013-03-30 05:34:00,62.6,57.7,30.06,NE,45,12.1,12.1,84,0.00,CLR,,0.00,WeatherDisplay:10.37,2013-03-30 11:34:00,
2013-03-30 05:39:00,64.2,55.8,30.07,ENE,58,0.0,15.0,74,0.00,CLR,,0.00,WeatherDisplay:10.37,2013-03-30 11:39:00,
2013-03-30 05:44:00,64.2,55.8,30.07,ENE,58,0.0,15.0,74,0.00,CLR,,0.00,WeatherDisplay:10.37,2013-03-30 11:44:00,
2013-03-30 05:49:00,62.6,57.7,30.06,NE,45,9.8,9.8,84,0.00,CLR,,0.00,WeatherDisplay:10.37,2013-03-30 11:49:00,
2013-03-30 05:54:00,64.2,55.8,30.07,ENE,58,0.0,13.0,74,0.00,CLR,,0.00,WeatherDisplay:10.37,2013-03-30 11:54:00,
2013-03-30 05:59:00,64.2,55.8,30.07,ENE,58,0.0,12.0,74,0.00,CLR,,0.00,WeatherDisplay:10.37,2013-03-30 11:59:00,
2013-03-30 06:04:00,63.3,58.4,30.07,NE,45,11.4,11.4,84,0.00,CLR,,0.00,WeatherDisplay:10.37,2013-03-30 12:04:00,
2013-03-30 06:09:00,64.0,58.8,30.06,NE,45,13.0,13.0,83,0.00,CLR,,0.00,WeatherDisplay:10.37,2013-03-30 12:09:00,
2013-03-30 06:14:00,64.6,59.3,30.06,East,90,11.4,11.4,83,0.00,CLR,,0.00,WeatherDisplay:10.37,2013-03-30 12:14:00,
2013-03-30 06:19:00,65.1,59.1,30.06,NE,45,9.2,9.2,81,0.00,CLR,,0.00,WeatherDisplay:10.37,2013-03-30 12:19:00,
2013-03-30 06:24:00,64.2,55.8,30.07,ENE,58,0.0,17.0,74,0.00,CLR,,0.00,WeatherDisplay:10.37,2013-03-30 12:24:00,
2013-03-30 06:29:00,64.2,55.8,30.07,ENE,58,0.0,17.0,74,0.00,CLR,,0.00,WeatherDisplay:10.37,2013-03-30 12:29:00,
2013-03-30 06:34:00,64.2,55.8,30.07,ENE,58,0.0,12.0,74,0.00,CLR,,0.00,WeatherDisplay:10.37,2013-03-30 12:34:00,
2013-03-30 06:39:00,64.2,55.8,30.07,ENE,58,0.0,11.0,74,0.00,CLR,,0.00,WeatherDisplay:10.37,2013-03-30 12:39:00,
2013-03-30 06:47:00,67.8,59.2,30.06,East,90,9.2,9.2,74,0.00,CLR,,0.00,WeatherDisplay:10.37,2013-03-30 12:47:00,
2013-03-30 06:52:00,68.2,58.8,30.06,East,90,12.1,12.1,72,0.00,CLR,,0.00,WeatherDisplay:10.37,2013-03-30 12:52:00,
2013-03-30 06:57:00,68.0,58.3,30.07,NE,45,14.0,14.0,71,0.00,,,0.00,meteohub,2013-03-30 12:57:00,
2013-03-30 07:02:00,67.8,58.1,30.06,East,90,12.1,12.1,71,0.00,CLR,,0.00,WeatherDisplay:10.37,2013-03-30 13:02:00,
2013-03-30 07:07:00,68.0,59.0,30.06,NE,45,10.7,10.7,73,0.00,CLR,,0.00,WeatherDisplay:10.37,2013-03-30 13:07:00,
2013-03-30 07:12:00,68.5,59.5,30.07,East,90,13.0,13.0,73,0.00,CLR,,0.00,WeatherDisplay:10.37,2013-03-30 13:12:00,
2013-03-30 07:18:00,69.1,60.1,30.07,NE,45,13.6,13.6,73,0.00,CLR,,0.00,WeatherDisplay:10.37,2013-03-30 13:18:00,
2013-03-30 07:23:00,69.3,59.5,30.06,NE,45,14.5,14.5,71,0.00,CLR,,0.00,WeatherDisplay:10.37,2013-03-30 13:23:00,
2013-03-30 07:28:00,69.3,59.5,30.06,NE,45,14.5,14.5,71,0.00,CLR,,0.00,WeatherDisplay:10.37,2013-03-30 13:28:00,
2013-03-30 07:34:00,69.6,59.8,30.06,NE,45,10.7,10.7,71,0.00,CLR,,0.00,WeatherDisplay:10.37,2013-03-30 13:34:00,
2013-03-30 07:39:00,70.0,59.3,30.05,NE,45,11.4,11.4,69,0.00,CLR,,0.00,WeatherDisplay:10.37,2013-03-30 13:39:00,
2013-03-30 07:44:00,70.7,59.2,30.06,NE,45,13.0,13.0,67,0.00,CLR,,0.00,WeatherDisplay:10.37,2013-03-30 13:44:00,
2013-03-30 07:49:00,71.1,59.1,30.05,NE,45,13.6,13.6,66,0.00,CLR,,0.00,WeatherDisplay:10.37,2013-03-30 13:49:00,
2013-03-30 07:54:00,71.4,59.5,30.04,NE,45,11.4,11.4,66,0.00,CLR,,0.00,WeatherDisplay:10.37,2013-03-30 13:54:00,
2013-03-30 07:59:00,72.0,58.7,30.04,NE,45,13.0,13.0,63,0.00,CLR,,0.00,WeatherDisplay:10.37,2013-03-30 13:59:00,
2013-03-30 08:04:00,72.1,58.8,30.04,NE,45,15.9,15.9,63,0.00,CLR,,0.00,WeatherDisplay:10.37,2013-03-30 14:04:00,
2013-03-30 08:09:00,72.5,59.2,30.03,East,90,13.6,13.6,63,0.00,CLR,,0.00,WeatherDisplay:10.37,2013-03-30 14:09:00,
2013-03-30 08:14:00,72.9,59.1,30.03,NE,45,16.8,16.8,62,0.00,CLR,,0.00,WeatherDisplay:10.37,2013-03-30 14:14:00,
2013-03-30 08:19:00,72.7,59.4,30.02,East,90,13.6,13.6,63,0.00,CLR,,0.00,WeatherDisplay:10.37,2013-03-30 14:19:00,
2013-03-30 08:24:00,73.4,59.6,30.02,NE,45,17.4,17.4,62,0.00,CLR,,0.00,WeatherDisplay:10.37,2013-03-30 14:24:00,
2013-03-30 08:29:00,73.2,59.0,30.01,North,0,15.2,15.2,61,0.00,CLR,,0.00,WeatherDisplay:10.37,2013-03-30 14:29:00,
2013-03-30 08:34:00,73.0,59.2,30.01,NE,45,12.1,12.1,62,0.00,CLR,,0.00,WeatherDisplay:10.37,2013-03-30 14:34:00,
2013-03-30 08:39:00,74.1,59.3,30.01,East,90,13.0,13.0,60,0.00,CLR,,0.00,WeatherDisplay:10.37,2013-03-30 14:39:00,
2013-03-30 08:44:00,74.7,59.4,30.00,NE,45,9.8,9.8,59,0.00,CLR,,0.00,WeatherDisplay:10.37,2013-03-30 14:44:00,
2013-03-30 08:49:00,75.0,59.2,30.01,NE,45,12.0,17.0,58,0.00,,,0.00,meteohub,2013-03-30 14:49:00,
2013-03-30 08:54:00,75.4,59.1,29.99,NNW,338,16.8,16.8,57,0.00,CLR,,0.00,WeatherDisplay:10.37,2013-03-30 14:54:00,
2013-03-30 08:59:00,75.6,59.7,29.98,NE,45,22.8,22.8,58,0.00,CLR,,0.00,WeatherDisplay:10.37,2013-03-30 14:59:00,
2013-03-30 09:05:00,75.4,59.6,29.97,NE,45,19.0,19.0,58,0.00,CLR,,0.00,WeatherDisplay:10.37,2013-03-30 15:05:00,
2013-03-30 09:10:00,75.7,59.9,29.96,NE,45,19.0,19.0,58,0.00,CLR,,0.00,WeatherDisplay:10.37,2013-03-30 15:10:00,
2013-03-30 09:15:00,76.1,60.2,29.97,NE,45,17.4,17.4,58,0.00,CLR,,0.00,WeatherDisplay:10.37,2013-03-30 15:15:00,
2013-03-30 09:20:00,76.1,60.2,29.96,NE,45,21.2,21.2,58,0.00,CLR,,0.00,WeatherDisplay:10.37,2013-03-30 15:20:00,
2013-03-30 09:26:00,75.9,61.0,29.95,NE,45,22.8,22.8,60,0.00,CLR,,0.00,WeatherDisplay:10.37,2013-03-30 15:26:00,
2013-03-30 09:32:00,76.3,60.4,29.96,NE,45,25.0,25.0,58,0.00,CLR,,0.00,WeatherDisplay:10.37,2013-03-30 15:32:00,
2013-03-30 09:41:00,76.1,60.3,29.96,NE,45,17.0,25.0,58,0.00,,,0.00,meteohub,2013-03-30 15:41:00,
2013-03-30 09:46:00,76.5,60.6,29.95,NE,45,23.0,23.0,58,0.00,CLR,,0.00,WeatherDisplay:10.37,2013-03-30 15:46:00,
2013-03-30 09:52:00,76.8,61.0,29.96,NE,45,13.0,24.0,58,0.00,,,0.00,meteohub,2013-03-30 15:52:00,
2013-03-30 10:00:00,77.9,61.0,29.94,NE,45,15.0,23.0,56,0.00,,,0.00,meteohub,2013-03-30 16:00:00,
2013-03-30 10:11:00,77.9,61.0,29.94,NE,45,21.0,24.0,56,0.00,,,0.00,meteohub,2013-03-30 16:11:00,
2013-03-30 10:18:00,77.5,60.6,29.94,North,0,25.0,25.0,56,0.00,,,0.00,meteohub,2013-03-30 16:18:00,
2013-03-30 10:25:00,77.9,61.0,29.94,NE,45,15.0,25.0,56,0.00,,,0.00,meteohub,2013-03-30 16:25:00,
2013-03-30 10:32:00,78.3,61.3,29.92,East,90,20.0,25.0,56,0.00,,,0.00,meteohub,2013-03-30 16:32:00,
2013-03-30 10:37:00,79.2,61.2,29.92,NE,45,14.0,21.0,54,0.00,,,0.00,meteohub,2013-03-30 16:37:00,
2013-03-30 10:43:00,79.3,61.2,29.91,NE,45,17.0,21.0,54,0.00,,,0.00,meteohub,2013-03-30 16:43:00,
2013-03-30 10:49:00,79.7,62.1,29.91,NE,45,12.0,20.0,55,0.00,,,0.00,meteohub,2013-03-30 16:49:00,
2013-03-30 11:00:00,79.3,61.7,29.90,NE,45,12.0,20.0,55,0.00,,,0.00,meteohub,2013-03-30 17:00:00,
2013-03-30 11:09:00,79.0,61.5,29.89,NE,45,17.0,21.0,55,0.00,,,0.00,meteohub,2013-03-30 17:09:00,
2013-03-30 11:20:00,78.6,61.5,29.89,East,90,27.0,27.0,56,0.00,,,0.00,meteohub,2013-03-30 17:20:00,
2013-03-30 11:37:00,78.4,61.9,29.87,NE,45,21.0,27.0,57,0.00,,,0.00,meteohub,2013-03-30 17:37:00,
2013-03-30 11:44:00,78.3,62.8,29.87,NE,45,18.0,27.0,59,0.00,,,0.00,meteohub,2013-03-30 17:44:00,
2013-03-30 11:51:00,78.6,62.6,29.87,WNW,293,18.0,23.0,58,0.00,,,0.00,meteohub,2013-03-30 17:51:00,
2013-03-30 11:57:00,78.8,62.2,29.87,North,0,17.0,23.0,57,0.00,,,0.00,meteohub,2013-03-30 17:57:00,
2013-03-30 12:02:00,79.3,62.2,29.86,NE,45,23.0,23.0,56,0.00,,,0.00,meteohub,2013-03-30 18:02:00,
2013-03-30 12:08:00,79.3,62.2,29.85,NE,45,21.0,23.0,56,0.00,,,0.00,meteohub,2013-03-30 18:08:00,
2013-03-30 12:15:00,79.9,62.2,29.84,East,90,19.0,23.0,55,0.00,,,0.00,meteohub,2013-03-30 18:15:00,
2013-03-30 12:22:00,80.1,62.4,29.83,North,0,23.0,28.0,55,0.00,,,0.00,meteohub,2013-03-30 18:22:00,
2013-03-30 12:36:00,79.2,62.1,29.83,East,90,20.0,27.0,56,0.00,,,0.00,meteohub,2013-03-30 18:36:00,
2013-03-30 12:44:00,79.2,62.6,29.83,NE,45,24.0,27.0,57,0.00,,,0.00,meteohub,2013-03-30 18:44:00,
2013-03-30 12:50:00,79.0,62.4,29.84,NE,45,20.0,25.0,57,0.00,,,0.00,meteohub,2013-03-30 18:50:00,
2013-03-30 12:59:00,78.6,63.1,29.83,NE,45,18.0,27.0,59,0.00,,,0.00,meteohub,2013-03-30 18:59:00,
2013-03-30 13:05:00,79.7,63.1,29.82,NE,45,17.0,27.0,57,0.00,,,0.00,meteohub,2013-03-30 19:05:00,
2013-03-30 13:24:00,78.6,63.5,29.82,NE,45,23.0,28.0,60,0.00,,,0.00,meteohub,2013-03-30 19:24:00,
2013-03-30 13:30:00,77.9,63.3,29.82,NE,45,21.0,28.0,61,0.00,,,0.00,meteohub,2013-03-30 19:30:00,
2013-03-30 13:36:00,77.9,64.2,29.82,NE,45,24.0,27.0,63,0.00,,,0.00,meteohub,2013-03-30 19:36:00,
2013-03-30 13:45:00,76.5,63.9,29.82,NE,45,27.0,29.0,65,0.00,,,0.00,meteohub,2013-03-30 19:45:00,
2013-03-30 13:50:00,76.8,64.6,29.83,North,0,22.0,32.0,66,0.00,,,0.00,meteohub,2013-03-30 19:50:00,
2013-03-30 13:55:00,77.0,63.9,29.83,NE,45,27.0,34.0,64,0.00,,,0.00,meteohub,2013-03-30 19:55:00,
2013-03-30 14:03:00,76.6,64.0,29.83,NE,45,25.0,34.0,65,0.00,,,0.00,meteohub,2013-03-30 20:03:00,
2013-03-30 14:11:00,75.9,63.7,29.83,NE,45,29.0,34.0,66,0.00,,,0.00,meteohub,2013-03-30 20:11:00,
2013-03-30 14:39:00,76.3,63.7,29.83,NE,45,26.0,33.0,65,0.00,,,0.00,meteohub,2013-03-30 20:39:00,
2013-03-30 14:47:00,76.5,63.9,29.82,NE,45,28.0,32.0,65,0.00,,,0.00,meteohub,2013-03-30 20:47:00,
2013-03-30 14:53:00,76.5,63.9,29.82,North,0,21.0,30.0,65,0.00,,,0.00,meteohub,2013-03-30 20:53:00,
2013-03-30 15:02:00,75.6,63.3,29.82,NE,45,31.0,32.0,66,0.00,,,0.00,meteohub,2013-03-30 21:02:00,
2013-03-30 15:15:00,75.2,63.5,29.81,North,0,22.0,34.0,67,0.00,,,0.00,meteohub,2013-03-30 21:15:00,
2013-03-30 15:23:00,74.1,64.0,29.83,NE,45,19.0,36.0,71,0.00,,,0.00,meteohub,2013-03-30 21:23:00,
2013-03-30 15:30:00,74.1,63.7,29.83,NE,45,21.0,36.0,70,0.00,,,0.00,meteohub,2013-03-30 21:30:00,
2013-03-30 15:35:00,74.1,63.7,29.84,East,90,23.0,35.0,70,0.00,,,0.00,meteohub,2013-03-30 21:35:00,
2013-03-30 15:40:00,74.3,64.2,29.83,NNE,23,21.0,35.0,71,0.00,,,0.00,meteohub,2013-03-30 21:40:00,
2013-03-30 15:51:00,74.7,64.2,29.84,NNW,338,16.0,28.0,70,0.00,,,0.00,meteohub,2013-03-30 21:51:00,
2013-03-30 15:58:00,75.0,64.2,29.83,North,0,14.0,25.0,69,0.00,,,0.00,meteohub,2013-03-30 21:58:00,
2013-03-30 16:09:00,74.1,64.6,29.83,NE,45,17.0,21.0,72,0.00,,,0.00,meteohub,2013-03-30 22:09:00,
2013-03-30 16:14:00,73.9,64.8,29.83,East,90,15.0,25.0,73,0.00,,,0.00,meteohub,2013-03-30 22:14:00,
2013-03-30 16:26:00,73.8,64.2,29.84,East,90,15.0,25.0,72,0.00,,,0.00,meteohub,2013-03-30 22:26:00,
2013-03-30 16:31:00,73.8,64.6,29.84,NE,45,14.0,25.0,73,0.00,,,0.00,meteohub,2013-03-30 22:31:00,
2013-03-30 16:36:00,73.8,64.9,29.84,NE,45,16.0,25.0,74,0.00,,,0.00,meteohub,2013-03-30 22:36:00,
2013-03-30 16:41:00,73.6,64.4,29.85,NE,45,21.0,22.0,73,0.00,,,0.00,meteohub,2013-03-30 22:41:00,
2013-03-30 16:47:00,73.0,63.9,29.84,East,90,16.0,24.0,73,0.00,,,0.00,meteohub,2013-03-30 22:47:00,
2013-03-30 16:52:00,72.9,64.0,29.85,NE,45,21.0,24.0,74,0.00,,,0.00,meteohub,2013-03-30 22:52:00,
2013-03-30 16:57:00,72.3,63.9,29.85,NE,45,16.0,24.0,75,0.00,,,0.00,meteohub,2013-03-30 22:57:00,
2013-03-30 17:02:00,72.1,64.2,29.85,NE,45,17.0,23.0,76,0.00,,,0.00,meteohub,2013-03-30 23:02:00,
2013-03-30 17:07:00,71.6,63.7,29.86,NE,45,15.0,23.0,76,0.00,,,0.00,meteohub,2013-03-30 23:07:00,
2013-03-30 17:12:00,71.2,64.4,29.86,North,0,19.0,22.0,79,0.00,,,0.00,meteohub,2013-03-30 23:12:00,
2013-03-30 17:17:00,70.9,64.4,29.86,NE,45,15.0,22.0,80,0.00,,,0.00,meteohub,2013-03-30 23:17:00,
2013-03-30 17:22:00,70.5,64.0,29.88,East,90,10.0,21.0,80,0.00,,,0.00,meteohub,2013-03-30 23:22:00,
2013-03-30 17:27:00,70.2,64.0,29.88,North,0,21.0,21.0,81,0.00,,,0.00,meteohub,2013-03-30 23:27:00,
2013-03-30 17:32:00,70.0,64.2,29.88,North,0,10.0,21.0,82,0.00,,,0.00,meteohub,2013-03-30 23:32:00,
2013-03-30 17:37:00,70.0,64.2,29.89,East,90,15.0,21.0,82,0.00,,,0.00,meteohub,2013-03-30 23:37:00,
2013-03-30 17:42:00,69.8,64.0,29.89,NE,45,15.0,21.0,82,0.00,,,0.00,meteohub,2013-03-30 23:42:00,
2013-03-30 17:47:00,69.4,64.4,29.89,NE,45,22.0,22.0,84,0.00,,,0.00,meteohub,2013-03-30 23:47:00,
2013-03-30 17:53:00,69.1,64.0,29.90,NE,45,13.0,21.0,84,0.00,,,0.00,meteohub,2013-03-30 23:53:00,
2013-03-30 17:58:00,68.9,64.2,29.90,NE,45,10.0,22.0,85,0.00,,,0.00,meteohub,2013-03-30 23:58:00,
2013-03-30 18:03:00,69.1,64.0,29.91,NE,45,9.0,22.0,84,0.00,,,0.00,meteohub,2013-03-31 00:03:00,
2013-03-30 18:08:00,69.4,64.4,29.91,East,90,8.0,18.0,84,0.00,,,0.00,meteohub,2013-03-31 00:08:00,
2013-03-30 18:13:00,69.4,64.0,29.90,NE,45,8.0,13.0,83,0.00,,,0.00,meteohub,2013-03-31 00:13:00,
2013-03-30 18:18:00,69.4,64.0,29.91,NE,45,10.0,13.0,83,0.00,,,0.00,meteohub,2013-03-31 00:18:00,
2013-03-30 18:23:00,69.3,63.9,29.91,NE,45,11.0,11.0,83,0.00,,,0.00,meteohub,2013-03-31 00:23:00,
2013-03-30 18:28:00,68.9,63.9,29.91,NE,45,12.0,12.0,84,0.00,,,0.00,meteohub,2013-03-31 00:28:00,
2013-03-30 18:33:00,68.5,63.9,29.92,East,90,14.0,15.0,85,0.00,,,0.00,meteohub,2013-03-31 00:33:00,
2013-03-30 18:38:00,68.4,63.7,29.92,NE,45,13.0,15.0,85,0.00,,,0.00,meteohub,2013-03-31 00:38:00,
2013-03-30 18:43:00,68.2,63.9,29.93,NE,45,12.0,16.0,86,0.00,,,0.00,meteohub,2013-03-31 00:43:00,
2013-03-30 18:48:00,68.2,63.5,29.94,NE,45,14.0,17.0,85,0.00,,,0.00,meteohub,2013-03-31 00:48:00,
2013-03-30 18:53:00,68.2,63.5,29.94,NE,45,15.0,17.0,85,0.00,,,0.00,meteohub,2013-03-31 00:53:00,
2013-03-30 18:58:00,68.2,63.9,29.94,NE,45,13.0,17.0,86,0.00,,,0.00,meteohub,2013-03-31 00:58:00,
2013-03-30 19:11:00,68.0,63.7,29.95,South,180,13.0,18.0,86,0.00,,,0.00,meteohub,2013-03-31 01:11:00,
2013-03-30 19:16:00,68.2,63.9,29.95,East,90,12.0,18.0,86,0.00,,,0.00,meteohub,2013-03-31 01:16:00,
2013-03-30 19:26:00,68.2,63.5,29.94,NE,45,11.0,16.0,85,0.00,,,0.00,meteohub,2013-03-31 01:26:00,
2013-03-30 19:34:00,68.0,63.7,29.95,East,90,11.0,13.0,86,0.00,,,0.00,meteohub,2013-03-31 01:34:00,
2013-03-30 19:42:00,68.0,63.7,29.95,NE,45,11.0,13.0,86,0.00,,,0.00,meteohub,2013-03-31 01:42:00,
2013-03-30 19:48:00,67.8,63.9,29.95,NE,45,11.0,13.0,87,0.00,,,0.00,meteohub,2013-03-31 01:48:00,
2013-03-30 19:54:00,67.5,63.9,29.96,NE,45,10.0,14.0,88,0.00,,,0.00,meteohub,2013-03-31 01:54:00,
2013-03-30 20:00:00,66.9,63.5,29.95,North,0,15.0,16.0,89,0.00,,,0.00,meteohub,2013-03-31 02:00:00,
2013-03-30 20:07:00,66.7,63.3,29.96,NE,45,11.0,17.0,89,0.00,,,0.00,meteohub,2013-03-31 02:07:00,
2013-03-30 20:15:00,66.7,63.3,29.96,NE,45,16.0,19.0,89,0.00,,,0.00,meteohub,2013-03-31 02:15:00,
2013-03-30 20:20:00,66.6,63.5,29.96,NE,45,17.0,19.0,90,0.00,,,0.00,meteohub,2013-03-31 02:20:00,
2013-03-30 20:27:00,66.2,63.5,29.96,NE,45,11.0,17.0,91,0.00,,,0.00,meteohub,2013-03-31 02:27:00,
2013-03-30 20:44:00,65.8,64.4,29.96,NE,45,7.0,16.0,95,0.00,,,0.00,meteohub,2013-03-31 02:44:00,
2013-03-30 20:53:00,65.8,64.4,29.97,East,90,8.0,12.0,95,0.00,,,0.00,meteohub,2013-03-31 02:53:00,
2013-03-30 20:59:00,65.7,64.2,29.97,NE,45,13.0,13.0,95,0.00,,,0.00,meteohub,2013-03-31 02:59:00,
2013-03-30 21:11:00,65.7,63.9,29.98,NE,45,11.0,15.0,94,0.00,,,0.00,meteohub,2013-03-31 03:11:00,
2013-03-30 21:17:00,65.8,63.7,29.98,NE,45,14.0,15.0,93,0.00,,,0.00,meteohub,2013-03-31 03:17:00,
2013-03-30 21:23:00,66.0,63.7,29.98,East,90,11.0,15.0,92,0.00,,,0.00,meteohub,2013-03-31 03:23:00,
2013-03-30 21:34:00,66.4,63.0,29.98,East,90,8.0,16.0,89,0.00,,,0.00,meteohub,2013-03-31 03:34:00,
2013-03-30 21:42:00,66.2,62.8,29.98,NE,45,12.0,15.0,89,0.00,,,0.00,meteohub,2013-03-31 03:42:00,
2013-03-30 21:47:00,66.2,62.8,29.98,NE,45,14.0,15.0,89,0.00,,,0.00,meteohub,2013-03-31 03:47:00,
2013-03-30 21:55:00,65.8,63.1,29.99,NE,45,9.0,15.0,91,0.00,,,0.00,meteohub,2013-03-31 03:55:00,
2013-03-30 22:05:00,65.8,63.1,29.98,NE,45,13.0,16.0,91,0.00,,,0.00,meteohub,2013-03-31 04:05:00,
2013-03-30 22:10:00,66.0,63.0,29.99,East,90,11.0,16.0,90,0.00,,,0.00,meteohub,2013-03-31 04:10:00,
2013-03-30 22:15:00,66.0,63.0,29.99,NE,45,14.0,14.0,90,0.00,,,0.00,meteohub,2013-03-31 04:15:00,
2013-03-30 22:20:00,66.2,62.6,29.99,East,90,9.0,14.0,88,0.00,,,0.00,meteohub,2013-03-31 04:20:00,
2013-03-30 22:45:00,66.2,62.2,29.97,NE,45,7.0,-999.0,87,-99.99,,,0.00,meteohub,2013-03-31 04:45:00,
2013-03-30 22:50:00,66.2,62.2,29.98,NE,45,7.0,9.0,87,0.00,,,0.00,meteohub,2013-03-31 04:50:00,
2013-03-30 22:55:00,66.2,62.2,29.97,NE,45,14.0,14.0,87,0.00,,,0.00,meteohub,2013-03-31 04:55:00,
2013-03-30 23:00:00,66.2,62.6,29.97,East,90,7.0,12.0,88,0.00,,,0.00,meteohub,2013-03-31 05:00:00,
2013-03-30 23:05:00,66.2,62.2,29.97,East,90,10.0,18.0,87,0.00,,,0.00,meteohub,2013-03-31 05:05:00,
2013-03-30 23:10:00,66.2,62.6,29.98,East,90,12.0,18.0,88,0.00,,,0.00,meteohub,2013-03-31 05:10:00,
2013-03-30 23:21:00,65.7,63.5,29.97,East,90,18.0,18.0,93,0.00,,,0.00,meteohub,2013-03-31 05:21:00,
2013-03-30 23:26:00,65.5,64.0,29.98,NE,45,17.0,19.0,95,0.00,,,0.00,meteohub,2013-03-31 05:26:00,
2013-03-30 23:33:00,65.7,64.2,29.98,NE,45,11.0,19.0,95,0.00,,,0.00,meteohub,2013-03-31 05:33:00,
2013-03-30 23:40:00,65.8,64.4,29.98,East,90,15.0,19.0,95,0.00,,,0.00,meteohub,2013-03-31 05:40:00,
2013-03-30 23:46:00,65.7,64.2,29.99,North,0,13.0,19.0,95,0.00,,,0.00,meteohub,2013-03-31 05:46:00,
2013-03-30 23:53:00,65.5,64.2,29.98,NE,45,11.0,19.0,96,0.00,,,0.00,meteohub,2013-03-31 05:53:00,
2013-03-30 23:59:00,65.5,64.2,29.97,NE,45,15.0,16.0,96,0.00,,,0.00,meteohub,2013-03-31 05:59:00,